sensor_id;sensor_type;location;lat;lon;timestamp;P1;durP1;ratioP1;P2;durP2;ratioP2
32445;SDS011;18899;50.748;7.102;2023-07-20T00:01:44;5.15;;;2.22;;
32445;SDS011;18899;50.748;7.102;2023-07-20T00:04:10;9.00;;;2.30;;
32445;SDS011;18899;50.748;7.102;2023-07-20T00:06:38;5.40;;;2.40;;
32445;SDS011;18899;50.748;7.102;2023-07-20T00:09:05;5.38;;;2.38;;
32445;SDS011;18899;50.748;7.102;2023-07-20T00:11:31;5.10;;;2.28;;
32445;SDS011;18899;50.748;7.102;2023-07-20T00:13:56;7.70;;;2.38;;
32445;SDS011;18899;50.748;7.102;2023-07-20T00:16:22;8.05;;;2.08;;
32445;SDS011;18899;50.748;7.102;2023-07-20T00:18:47;7.47;;;2.42;;
32445;SDS011;18899;50.748;7.102;2023-07-20T00:21:13;4.82;;;2.45;;
32445;SDS011;18899;50.748;7.102;2023-07-20T00:23:39;6.82;;;2.28;;
32445;SDS011;18899;50.748;7.102;2023-07-20T00:26:04;7.00;;;2.03;;
32445;SDS011;18899;50.748;7.102;2023-07-20T00:28:30;6.95;;;2.20;;
32445;SDS011;18899;50.748;7.102;2023-07-20T00:30:55;9.00;;;2.25;;
32445;SDS011;18899;50.748;7.102;2023-07-20T00:33:21;5.68;;;2.80;;
32445;SDS011;18899;50.748;7.102;2023-07-20T00:35:46;8.45;;;2.70;;
32445;SDS011;18899;50.748;7.102;2023-07-20T00:38:12;7.07;;;2.13;;
32445;SDS011;18899;50.748;7.102;2023-07-20T00:43:03;5.43;;;1.92;;
32445;SDS011;18899;50.748;7.102;2023-07-20T00:45:29;5.93;;;2.30;;
32445;SDS011;18899;50.748;7.102;2023-07-20T00:47:55;6.60;;;2.40;;
32445;SDS011;18899;50.748;7.102;2023-07-20T00:50:22;9.73;;;2.58;;
32445;SDS011;18899;50.748;7.102;2023-07-20T00:52:50;6.07;;;2.25;;
32445;SDS011;18899;50.748;7.102;2023-07-20T00:55:16;4.80;;;2.28;;
32445;SDS011;18899;50.748;7.102;2023-07-20T00:57:43;7.95;;;2.17;;
32445;SDS011;18899;50.748;7.102;2023-07-20T01:00:09;6.53;;;2.35;;
32445;SDS011;18899;50.748;7.102;2023-07-20T01:02:35;4.13;;;2.17;;
32445;SDS011;18899;50.748;7.102;2023-07-20T01:05:01;6.10;;;2.25;;
32445;SDS011;18899;50.748;7.102;2023-07-20T01:07:31;4.53;;;2.40;;
32445;SDS011;18899;50.748;7.102;2023-07-20T01:10:10;4.72;;;2.05;;
32445;SDS011;18899;50.748;7.102;2023-07-20T01:12:43;7.03;;;2.22;;
32445;SDS011;18899;50.748;7.102;2023-07-20T01:15:12;6.68;;;2.03;;
32445;SDS011;18899;50.748;7.102;2023-07-20T01:17:39;6.38;;;1.90;;
32445;SDS011;18899;50.748;7.102;2023-07-20T01:20:05;4.00;;;1.92;;
32445;SDS011;18899;50.748;7.102;2023-07-20T01:25:21;4.95;;;2.45;;
32445;SDS011;18899;50.748;7.102;2023-07-20T01:30:51;3.40;;;1.83;;
32445;SDS011;18899;50.748;7.102;2023-07-20T01:33:21;4.50;;;2.28;;
32445;SDS011;18899;50.748;7.102;2023-07-20T01:35:52;4.35;;;2.03;;
32445;SDS011;18899;50.748;7.102;2023-07-20T01:38:20;7.00;;;2.55;;
32445;SDS011;18899;50.748;7.102;2023-07-20T01:40:47;5.68;;;2.70;;
32445;SDS011;18899;50.748;7.102;2023-07-20T01:43:14;6.72;;;2.33;;
32445;SDS011;18899;50.748;7.102;2023-07-20T01:45:39;4.50;;;2.30;;
32445;SDS011;18899;50.748;7.102;2023-07-20T01:48:05;7.10;;;2.17;;
32445;SDS011;18899;50.748;7.102;2023-07-20T01:50:30;8.27;;;2.65;;
32445;SDS011;18899;50.748;7.102;2023-07-20T01:52:56;8.30;;;2.30;;
32445;SDS011;18899;50.748;7.102;2023-07-20T01:55:22;4.15;;;2.25;;
32445;SDS011;18899;50.748;7.102;2023-07-20T01:57:47;6.20;;;2.13;;
32445;SDS011;18899;50.748;7.102;2023-07-20T02:00:13;8.93;;;2.65;;
32445;SDS011;18899;50.748;7.102;2023-07-20T02:02:38;8.45;;;2.33;;
32445;SDS011;18899;50.748;7.102;2023-07-20T02:05:05;7.68;;;2.83;;
32445;SDS011;18899;50.748;7.102;2023-07-20T02:07:30;6.88;;;2.50;;
32445;SDS011;18899;50.748;7.102;2023-07-20T02:09:56;7.15;;;2.38;;
32445;SDS011;18899;50.748;7.102;2023-07-20T02:12:21;7.78;;;2.70;;
32445;SDS011;18899;50.748;7.102;2023-07-20T02:14:47;5.10;;;2.78;;
32445;SDS011;18899;50.748;7.102;2023-07-20T02:17:13;4.75;;;2.58;;
32445;SDS011;18899;50.748;7.102;2023-07-20T02:19:40;8.25;;;2.58;;
32445;SDS011;18899;50.748;7.102;2023-07-20T02:22:06;7.30;;;2.80;;
32445;SDS011;18899;50.748;7.102;2023-07-20T02:24:32;8.55;;;2.72;;
32445;SDS011;18899;50.748;7.102;2023-07-20T02:26:58;5.88;;;2.20;;
32445;SDS011;18899;50.748;7.102;2023-07-20T02:29:24;8.50;;;2.65;;
32445;SDS011;18899;50.748;7.102;2023-07-20T02:31:49;5.63;;;2.50;;
32445;SDS011;18899;50.748;7.102;2023-07-20T02:34:15;6.57;;;2.55;;
32445;SDS011;18899;50.748;7.102;2023-07-20T02:36:40;5.32;;;2.30;;
32445;SDS011;18899;50.748;7.102;2023-07-20T02:39:07;7.25;;;2.92;;
32445;SDS011;18899;50.748;7.102;2023-07-20T02:41:33;4.13;;;2.45;;
32445;SDS011;18899;50.748;7.102;2023-07-20T02:43:59;6.55;;;3.00;;
32445;SDS011;18899;50.748;7.102;2023-07-20T02:46:25;6.82;;;2.67;;
32445;SDS011;18899;50.748;7.102;2023-07-20T02:48:50;5.82;;;2.42;;
32445;SDS011;18899;50.748;7.102;2023-07-20T02:51:16;12.85;;;3.25;;
32445;SDS011;18899;50.748;7.102;2023-07-20T02:53:41;4.65;;;2.80;;
32445;SDS011;18899;50.748;7.102;2023-07-20T02:56:07;5.45;;;2.90;;
32445;SDS011;18899;50.748;7.102;2023-07-20T02:58:33;9.10;;;2.78;;
32445;SDS011;18899;50.748;7.102;2023-07-20T03:01:03;7.82;;;3.00;;
32445;SDS011;18899;50.748;7.102;2023-07-20T03:03:29;6.55;;;2.92;;
32445;SDS011;18899;50.748;7.102;2023-07-20T03:05:54;9.02;;;2.83;;
32445;SDS011;18899;50.748;7.102;2023-07-20T03:08:22;8.55;;;2.90;;
32445;SDS011;18899;50.748;7.102;2023-07-20T03:10:48;7.20;;;2.88;;
32445;SDS011;18899;50.748;7.102;2023-07-20T03:13:14;6.90;;;2.72;;
32445;SDS011;18899;50.748;7.102;2023-07-20T03:15:41;12.73;;;3.10;;
32445;SDS011;18899;50.748;7.102;2023-07-20T03:18:06;10.07;;;3.40;;
32445;SDS011;18899;50.748;7.102;2023-07-20T03:20:32;9.23;;;3.42;;
32445;SDS011;18899;50.748;7.102;2023-07-20T03:22:57;5.10;;;2.92;;
32445;SDS011;18899;50.748;7.102;2023-07-20T03:25:23;6.38;;;3.13;;
32445;SDS011;18899;50.748;7.102;2023-07-20T03:27:48;6.82;;;3.05;;
32445;SDS011;18899;50.748;7.102;2023-07-20T03:30:14;7.63;;;3.47;;
32445;SDS011;18899;50.748;7.102;2023-07-20T03:32:40;13.20;;;3.15;;
32445;SDS011;18899;50.748;7.102;2023-07-20T03:35:05;8.02;;;3.58;;
32445;SDS011;18899;50.748;7.102;2023-07-20T03:37:31;9.98;;;3.15;;
32445;SDS011;18899;50.748;7.102;2023-07-20T03:39:57;7.40;;;3.45;;
32445;SDS011;18899;50.748;7.102;2023-07-20T03:42:23;5.30;;;2.85;;
32445;SDS011;18899;50.748;7.102;2023-07-20T03:44:48;7.25;;;2.70;;
32445;SDS011;18899;50.748;7.102;2023-07-20T03:47:15;7.35;;;2.97;;
32445;SDS011;18899;50.748;7.102;2023-07-20T03:49:41;13.43;;;3.17;;
32445;SDS011;18899;50.748;7.102;2023-07-20T03:52:07;7.85;;;2.72;;
32445;SDS011;18899;50.748;7.102;2023-07-20T03:54:32;9.55;;;2.50;;
32445;SDS011;18899;50.748;7.102;2023-07-20T03:56:58;6.95;;;2.70;;
32445;SDS011;18899;50.748;7.102;2023-07-20T03:59:24;4.75;;;2.65;;
32445;SDS011;18899;50.748;7.102;2023-07-20T04:01:50;11.80;;;2.72;;
32445;SDS011;18899;50.748;7.102;2023-07-20T04:04:15;9.60;;;2.90;;
32445;SDS011;18899;50.748;7.102;2023-07-20T04:06:42;10.50;;;3.40;;
32445;SDS011;18899;50.748;7.102;2023-07-20T04:09:09;7.63;;;2.70;;
32445;SDS011;18899;50.748;7.102;2023-07-20T04:11:35;11.90;;;3.33;;
32445;SDS011;18899;50.748;7.102;2023-07-20T04:14:00;7.82;;;2.75;;
32445;SDS011;18899;50.748;7.102;2023-07-20T04:16:26;10.40;;;3.15;;
32445;SDS011;18899;50.748;7.102;2023-07-20T04:18:52;8.13;;;2.80;;
32445;SDS011;18899;50.748;7.102;2023-07-20T04:21:19;4.18;;;2.42;;
32445;SDS011;18899;50.748;7.102;2023-07-20T04:23:44;12.48;;;3.83;;
32445;SDS011;18899;50.748;7.102;2023-07-20T04:26:10;6.57;;;2.50;;
32445;SDS011;18899;50.748;7.102;2023-07-20T04:28:37;7.15;;;2.17;;
32445;SDS011;18899;50.748;7.102;2023-07-20T04:31:12;6.28;;;2.75;;
32445;SDS011;18899;50.748;7.102;2023-07-20T04:33:38;10.07;;;2.58;;
32445;SDS011;18899;50.748;7.102;2023-07-20T04:36:04;9.95;;;2.45;;
32445;SDS011;18899;50.748;7.102;2023-07-20T04:38:30;5.10;;;2.33;;
32445;SDS011;18899;50.748;7.102;2023-07-20T04:40:55;6.88;;;2.30;;
32445;SDS011;18899;50.748;7.102;2023-07-20T04:43:21;9.15;;;2.78;;
32445;SDS011;18899;50.748;7.102;2023-07-20T04:45:46;9.30;;;2.42;;
32445;SDS011;18899;50.748;7.102;2023-07-20T04:48:13;8.77;;;2.58;;
32445;SDS011;18899;50.748;7.102;2023-07-20T04:50:40;8.25;;;2.45;;
32445;SDS011;18899;50.748;7.102;2023-07-20T04:53:08;6.18;;;2.45;;
32445;SDS011;18899;50.748;7.102;2023-07-20T04:55:35;12.45;;;2.67;;
32445;SDS011;18899;50.748;7.102;2023-07-20T04:58:01;10.02;;;2.85;;
32445;SDS011;18899;50.748;7.102;2023-07-20T05:00:28;8.55;;;2.47;;
32445;SDS011;18899;50.748;7.102;2023-07-20T05:02:55;6.43;;;2.20;;
32445;SDS011;18899;50.748;7.102;2023-07-20T05:05:21;7.07;;;2.17;;
32445;SDS011;18899;50.748;7.102;2023-07-20T05:07:47;5.95;;;2.35;;
32445;SDS011;18899;50.748;7.102;2023-07-20T05:10:12;7.43;;;2.38;;
32445;SDS011;18899;50.748;7.102;2023-07-20T05:12:38;8.32;;;2.20;;
32445;SDS011;18899;50.748;7.102;2023-07-20T05:15:03;5.63;;;2.35;;
32445;SDS011;18899;50.748;7.102;2023-07-20T05:17:29;8.77;;;2.28;;
32445;SDS011;18899;50.748;7.102;2023-07-20T05:19:55;7.85;;;2.70;;
32445;SDS011;18899;50.748;7.102;2023-07-20T05:22:20;6.60;;;2.60;;
32445;SDS011;18899;50.748;7.102;2023-07-20T05:24:46;12.55;;;2.65;;
32445;SDS011;18899;50.748;7.102;2023-07-20T05:27:11;5.95;;;2.58;;
32445;SDS011;18899;50.748;7.102;2023-07-20T05:29:37;6.43;;;2.47;;
32445;SDS011;18899;50.748;7.102;2023-07-20T05:32:03;7.18;;;2.83;;
32445;SDS011;18899;50.748;7.102;2023-07-20T05:34:29;7.70;;;2.67;;
32445;SDS011;18899;50.748;7.102;2023-07-20T05:36:54;7.20;;;2.83;;
32445;SDS011;18899;50.748;7.102;2023-07-20T05:39:20;9.32;;;3.05;;
32445;SDS011;18899;50.748;7.102;2023-07-20T05:41:45;10.43;;;3.88;;
32445;SDS011;18899;50.748;7.102;2023-07-20T05:44:11;10.98;;;3.03;;
32445;SDS011;18899;50.748;7.102;2023-07-20T05:46:37;16.77;;;4.00;;
32445;SDS011;18899;50.748;7.102;2023-07-20T05:49:03;10.57;;;4.10;;
32445;SDS011;18899;50.748;7.102;2023-07-20T05:51:28;8.57;;;4.00;;
32445;SDS011;18899;50.748;7.102;2023-07-20T05:53:54;8.70;;;3.72;;
32445;SDS011;18899;50.748;7.102;2023-07-20T05:56:19;14.70;;;4.30;;
32445;SDS011;18899;50.748;7.102;2023-07-20T05:58:45;17.77;;;4.25;;
32445;SDS011;18899;50.748;7.102;2023-07-20T06:01:10;12.45;;;4.38;;
32445;SDS011;18899;50.748;7.102;2023-07-20T06:03:36;13.27;;;4.53;;
32445;SDS011;18899;50.748;7.102;2023-07-20T06:06:02;13.50;;;4.13;;
32445;SDS011;18899;50.748;7.102;2023-07-20T06:10:59;11.30;;;3.92;;
32445;SDS011;18899;50.748;7.102;2023-07-20T06:13:24;9.88;;;3.78;;
32445;SDS011;18899;50.748;7.102;2023-07-20T06:15:50;14.45;;;4.40;;
32445;SDS011;18899;50.748;7.102;2023-07-20T06:18:15;8.95;;;3.75;;
32445;SDS011;18899;50.748;7.102;2023-07-20T06:20:41;19.08;;;4.57;;
32445;SDS011;18899;50.748;7.102;2023-07-20T06:23:07;8.73;;;3.33;;
32445;SDS011;18899;50.748;7.102;2023-07-20T06:25:32;8.82;;;2.88;;
32445;SDS011;18899;50.748;7.102;2023-07-20T06:27:58;8.30;;;3.58;;
32445;SDS011;18899;50.748;7.102;2023-07-20T06:30:23;6.70;;;3.30;;
32445;SDS011;18899;50.748;7.102;2023-07-20T06:32:49;8.90;;;3.35;;
32445;SDS011;18899;50.748;7.102;2023-07-20T06:35:15;9.93;;;3.33;;
32445;SDS011;18899;50.748;7.102;2023-07-20T06:37:42;10.63;;;3.15;;
32445;SDS011;18899;50.748;7.102;2023-07-20T06:40:08;8.68;;;2.90;;
32445;SDS011;18899;50.748;7.102;2023-07-20T06:42:34;5.63;;;2.95;;
32445;SDS011;18899;50.748;7.102;2023-07-20T06:45:00;8.13;;;2.65;;
32445;SDS011;18899;50.748;7.102;2023-07-20T06:47:25;10.90;;;3.10;;
32445;SDS011;18899;50.748;7.102;2023-07-20T06:49:52;8.57;;;3.10;;
32445;SDS011;18899;50.748;7.102;2023-07-20T06:52:17;13.88;;;3.08;;
32445;SDS011;18899;50.748;7.102;2023-07-20T06:54:43;8.82;;;3.00;;
32445;SDS011;18899;50.748;7.102;2023-07-20T06:57:09;7.57;;;2.88;;
32445;SDS011;18899;50.748;7.102;2023-07-20T06:59:34;7.53;;;2.90;;
32445;SDS011;18899;50.748;7.102;2023-07-20T07:02:00;4.63;;;2.67;;
32445;SDS011;18899;50.748;7.102;2023-07-20T07:04:25;6.63;;;3.38;;
32445;SDS011;18899;50.748;7.102;2023-07-20T07:06:52;9.50;;;2.90;;
32445;SDS011;18899;50.748;7.102;2023-07-20T07:09:17;7.50;;;3.10;;
32445;SDS011;18899;50.748;7.102;2023-07-20T07:11:43;12.13;;;2.63;;
32445;SDS011;18899;50.748;7.102;2023-07-20T07:14:09;6.82;;;2.67;;
32445;SDS011;18899;50.748;7.102;2023-07-20T07:16:35;10.35;;;3.03;;
32445;SDS011;18899;50.748;7.102;2023-07-20T07:19:00;9.18;;;3.75;;
32445;SDS011;18899;50.748;7.102;2023-07-20T07:21:26;6.40;;;3.13;;
32445;SDS011;18899;50.748;7.102;2023-07-20T07:23:51;12.20;;;3.22;;
32445;SDS011;18899;50.748;7.102;2023-07-20T07:26:19;10.90;;;2.42;;
32445;SDS011;18899;50.748;7.102;2023-07-20T07:28:44;8.80;;;2.90;;
32445;SDS011;18899;50.748;7.102;2023-07-20T07:31:11;6.93;;;2.40;;
32445;SDS011;18899;50.748;7.102;2023-07-20T07:33:36;10.18;;;3.10;;
32445;SDS011;18899;50.748;7.102;2023-07-20T07:36:02;7.18;;;2.50;;
32445;SDS011;18899;50.748;7.102;2023-07-20T07:38:28;8.75;;;2.60;;
32445;SDS011;18899;50.748;7.102;2023-07-20T07:40:54;4.97;;;2.67;;
32445;SDS011;18899;50.748;7.102;2023-07-20T07:43:19;7.22;;;2.97;;
32445;SDS011;18899;50.748;7.102;2023-07-20T07:45:45;10.38;;;3.17;;
32445;SDS011;18899;50.748;7.102;2023-07-20T07:48:10;6.97;;;3.33;;
32445;SDS011;18899;50.748;7.102;2023-07-20T07:50:37;7.78;;;3.00;;
32445;SDS011;18899;50.748;7.102;2023-07-20T07:53:04;6.70;;;3.08;;
32445;SDS011;18899;50.748;7.102;2023-07-20T07:55:29;5.03;;;2.53;;
32445;SDS011;18899;50.748;7.102;2023-07-20T07:57:55;7.35;;;2.63;;
32445;SDS011;18899;50.748;7.102;2023-07-20T08:00:21;7.55;;;2.67;;
32445;SDS011;18899;50.748;7.102;2023-07-20T08:02:46;3.55;;;2.40;;
32445;SDS011;18899;50.748;7.102;2023-07-20T08:05:13;5.25;;;2.30;;
32445;SDS011;18899;50.748;7.102;2023-07-20T08:07:39;6.30;;;2.35;;
32445;SDS011;18899;50.748;7.102;2023-07-20T08:10:05;6.03;;;2.35;;
32445;SDS011;18899;50.748;7.102;2023-07-20T08:12:31;3.13;;;2.00;;
32445;SDS011;18899;50.748;7.102;2023-07-20T08:14:56;5.20;;;2.05;;
32445;SDS011;18899;50.748;7.102;2023-07-20T08:17:22;5.88;;;2.05;;
32445;SDS011;18899;50.748;7.102;2023-07-20T08:19:48;4.35;;;1.80;;
32445;SDS011;18899;50.748;7.102;2023-07-20T08:22:15;3.38;;;1.45;;
32445;SDS011;18899;50.748;7.102;2023-07-20T08:24:41;2.38;;;1.40;;
32445;SDS011;18899;50.748;7.102;2023-07-20T08:27:07;3.90;;;1.35;;
32445;SDS011;18899;50.748;7.102;2023-07-20T08:29:33;6.22;;;1.42;;
32445;SDS011;18899;50.748;7.102;2023-07-20T08:31:59;3.50;;;1.60;;
32445;SDS011;18899;50.748;7.102;2023-07-20T08:34:25;5.72;;;1.70;;
32445;SDS011;18899;50.748;7.102;2023-07-20T08:36:51;4.93;;;1.60;;
32445;SDS011;18899;50.748;7.102;2023-07-20T08:39:16;6.38;;;2.03;;
32445;SDS011;18899;50.748;7.102;2023-07-20T08:41:46;5.63;;;2.28;;
32445;SDS011;18899;50.748;7.102;2023-07-20T08:44:12;5.30;;;1.70;;
32445;SDS011;18899;50.748;7.102;2023-07-20T08:46:38;3.97;;;1.67;;
32445;SDS011;18899;50.748;7.102;2023-07-20T08:49:05;3.63;;;1.50;;
32445;SDS011;18899;50.748;7.102;2023-07-20T08:51:31;5.13;;;1.60;;
32445;SDS011;18899;50.748;7.102;2023-07-20T08:53:58;3.17;;;1.63;;
32445;SDS011;18899;50.748;7.102;2023-07-20T08:56:25;4.38;;;1.77;;
32445;SDS011;18899;50.748;7.102;2023-07-20T08:58:54;5.95;;;1.58;;
32445;SDS011;18899;50.748;7.102;2023-07-20T09:01:20;6.15;;;1.00;;
32445;SDS011;18899;50.748;7.102;2023-07-20T09:03:46;3.47;;;1.58;;
32445;SDS011;18899;50.748;7.102;2023-07-20T09:06:13;2.42;;;1.20;;
32445;SDS011;18899;50.748;7.102;2023-07-20T09:08:42;4.43;;;1.30;;
32445;SDS011;18899;50.748;7.102;2023-07-20T09:11:12;3.08;;;1.27;;
32445;SDS011;18899;50.748;7.102;2023-07-20T09:13:38;2.45;;;1.55;;
32445;SDS011;18899;50.748;7.102;2023-07-20T09:16:04;6.50;;;1.45;;
32445;SDS011;18899;50.748;7.102;2023-07-20T09:18:31;4.18;;;1.50;;
32445;SDS011;18899;50.748;7.102;2023-07-20T09:20:58;4.90;;;1.30;;
32445;SDS011;18899;50.748;7.102;2023-07-20T09:23:29;7.15;;;1.40;;
32445;SDS011;18899;50.748;7.102;2023-07-20T09:25:57;3.80;;;1.48;;
32445;SDS011;18899;50.748;7.102;2023-07-20T09:28:22;3.33;;;1.35;;
32445;SDS011;18899;50.748;7.102;2023-07-20T09:30:48;2.03;;;1.00;;
32445;SDS011;18899;50.748;7.102;2023-07-20T09:33:22;1.90;;;1.17;;
32445;SDS011;18899;50.748;7.102;2023-07-20T09:35:49;3.35;;;1.42;;
32445;SDS011;18899;50.748;7.102;2023-07-20T09:38:15;4.65;;;1.27;;
32445;SDS011;18899;50.748;7.102;2023-07-20T09:40:40;1.88;;;1.10;;
32445;SDS011;18899;50.748;7.102;2023-07-20T09:43:07;4.43;;;1.17;;
32445;SDS011;18899;50.748;7.102;2023-07-20T09:45:33;3.25;;;1.00;;
32445;SDS011;18899;50.748;7.102;2023-07-20T09:48:04;2.88;;;1.10;;
32445;SDS011;18899;50.748;7.102;2023-07-20T09:50:32;2.88;;;0.90;;
32445;SDS011;18899;50.748;7.102;2023-07-20T09:52:58;3.50;;;1.25;;
32445;SDS011;18899;50.748;7.102;2023-07-20T09:55:25;2.95;;;1.23;;
32445;SDS011;18899;50.748;7.102;2023-07-20T09:57:52;3.42;;;1.30;;
32445;SDS011;18899;50.748;7.102;2023-07-20T10:00:18;2.13;;;0.85;;
32445;SDS011;18899;50.748;7.102;2023-07-20T10:02:45;5.32;;;1.20;;
32445;SDS011;18899;50.748;7.102;2023-07-20T10:05:15;2.20;;;1.10;;
32445;SDS011;18899;50.748;7.102;2023-07-20T10:07:48;3.13;;;1.38;;
32445;SDS011;18899;50.748;7.102;2023-07-20T10:10:16;6.38;;;1.35;;
32445;SDS011;18899;50.748;7.102;2023-07-20T10:12:43;4.63;;;1.50;;
32445;SDS011;18899;50.748;7.102;2023-07-20T10:15:13;3.45;;;1.30;;
32445;SDS011;18899;50.748;7.102;2023-07-20T10:17:51;1.90;;;0.90;;
32445;SDS011;18899;50.748;7.102;2023-07-20T10:20:22;5.68;;;1.83;;
32445;SDS011;18899;50.748;7.102;2023-07-20T10:22:49;9.23;;;2.08;;
32445;SDS011;18899;50.748;7.102;2023-07-20T10:25:18;4.88;;;1.95;;
32445;SDS011;18899;50.748;7.102;2023-07-20T10:27:47;6.80;;;1.90;;
32445;SDS011;18899;50.748;7.102;2023-07-20T10:30:13;3.20;;;1.70;;
32445;SDS011;18899;50.748;7.102;2023-07-20T10:32:39;3.38;;;1.20;;
32445;SDS011;18899;50.748;7.102;2023-07-20T10:35:12;2.60;;;1.15;;
32445;SDS011;18899;50.748;7.102;2023-07-20T10:37:51;2.80;;;1.20;;
32445;SDS011;18899;50.748;7.102;2023-07-20T10:40:36;1.90;;;0.90;;
32445;SDS011;18899;50.748;7.102;2023-07-20T10:43:04;1.77;;;0.93;;
32445;SDS011;18899;50.748;7.102;2023-07-20T10:45:33;2.05;;;0.95;;
32445;SDS011;18899;50.748;7.102;2023-07-20T10:48:02;2.08;;;1.08;;
32445;SDS011;18899;50.748;7.102;2023-07-20T10:50:29;2.15;;;0.82;;
32445;SDS011;18899;50.748;7.102;2023-07-20T10:53:04;2.28;;;1.10;;
32445;SDS011;18899;50.748;7.102;2023-07-20T10:58:11;2.88;;;1.02;;
32445;SDS011;18899;50.748;7.102;2023-07-20T11:00:55;1.58;;;1.00;;
32445;SDS011;18899;50.748;7.102;2023-07-20T11:03:28;3.97;;;1.02;;
32445;SDS011;18899;50.748;7.102;2023-07-20T11:05:56;3.22;;;1.02;;
32445;SDS011;18899;50.748;7.102;2023-07-20T11:08:40;5.10;;;1.20;;
32445;SDS011;18899;50.748;7.102;2023-07-20T11:11:22;1.85;;;1.05;;
32445;SDS011;18899;50.748;7.102;2023-07-20T11:13:55;1.42;;;0.80;;
32445;SDS011;18899;50.748;7.102;2023-07-20T11:16:39;5.55;;;1.60;;
32445;SDS011;18899;50.748;7.102;2023-07-20T11:19:15;1.65;;;1.00;;
32445;SDS011;18899;50.748;7.102;2023-07-20T11:21:42;1.73;;;1.05;;
32445;SDS011;18899;50.748;7.102;2023-07-20T11:24:09;4.63;;;1.25;;
32445;SDS011;18899;50.748;7.102;2023-07-20T11:26:45;2.08;;;0.90;;
32445;SDS011;18899;50.748;7.102;2023-07-20T11:29:12;2.72;;;1.00;;
32445;SDS011;18899;50.748;7.102;2023-07-20T11:31:39;2.42;;;1.10;;
32445;SDS011;18899;50.748;7.102;2023-07-20T11:34:07;4.03;;;0.90;;
32445;SDS011;18899;50.748;7.102;2023-07-20T11:36:36;2.20;;;1.05;;
32445;SDS011;18899;50.748;7.102;2023-07-20T11:39:02;1.30;;;0.80;;
32445;SDS011;18899;50.748;7.102;2023-07-20T11:41:29;2.10;;;0.80;;
32445;SDS011;18899;50.748;7.102;2023-07-20T11:43:56;2.85;;;0.90;;
32445;SDS011;18899;50.748;7.102;2023-07-20T11:46:22;1.73;;;1.00;;
32445;SDS011;18899;50.748;7.102;2023-07-20T11:48:48;2.58;;;1.00;;
32445;SDS011;18899;50.748;7.102;2023-07-20T11:51:14;3.80;;;1.00;;
32445;SDS011;18899;50.748;7.102;2023-07-20T11:53:41;2.40;;;1.23;;
32445;SDS011;18899;50.748;7.102;2023-07-20T11:56:07;4.70;;;1.40;;
32445;SDS011;18899;50.748;7.102;2023-07-20T11:58:33;5.65;;;1.60;;
32445;SDS011;18899;50.748;7.102;2023-07-20T12:00:59;2.05;;;1.13;;
32445;SDS011;18899;50.748;7.102;2023-07-20T12:03:24;2.63;;;1.48;;
32445;SDS011;18899;50.748;7.102;2023-07-20T12:05:50;2.95;;;1.13;;
32445;SDS011;18899;50.748;7.102;2023-07-20T12:08:16;3.00;;;1.05;;
32445;SDS011;18899;50.748;7.102;2023-07-20T12:10:41;2.97;;;1.38;;
32445;SDS011;18899;50.748;7.102;2023-07-20T12:13:09;1.85;;;0.95;;
32445;SDS011;18899;50.748;7.102;2023-07-20T12:15:36;1.92;;;1.20;;
32445;SDS011;18899;50.748;7.102;2023-07-20T12:18:02;3.97;;;1.00;;
32445;SDS011;18899;50.748;7.102;2023-07-20T12:23:06;3.17;;;0.98;;
32445;SDS011;18899;50.748;7.102;2023-07-20T12:25:38;2.80;;;0.82;;
32445;SDS011;18899;50.748;7.102;2023-07-20T12:28:06;7.20;;;1.10;;
32445;SDS011;18899;50.748;7.102;2023-07-20T12:30:37;2.33;;;1.10;;
32445;SDS011;18899;50.748;7.102;2023-07-20T12:33:03;3.03;;;1.15;;
32445;SDS011;18899;50.748;7.102;2023-07-20T12:35:29;2.78;;;1.08;;
32445;SDS011;18899;50.748;7.102;2023-07-20T12:37:56;2.65;;;0.90;;
32445;SDS011;18899;50.748;7.102;2023-07-20T12:40:21;1.42;;;0.80;;
32445;SDS011;18899;50.748;7.102;2023-07-20T12:42:47;1.48;;;1.00;;
32445;SDS011;18899;50.748;7.102;2023-07-20T12:45:13;3.65;;;1.08;;
32445;SDS011;18899;50.748;7.102;2023-07-20T12:47:39;2.80;;;1.15;;
32445;SDS011;18899;50.748;7.102;2023-07-20T12:50:05;1.58;;;0.93;;
32445;SDS011;18899;50.748;7.102;2023-07-20T12:52:31;1.65;;;1.08;;
32445;SDS011;18899;50.748;7.102;2023-07-20T12:55:01;1.92;;;0.82;;
32445;SDS011;18899;50.748;7.102;2023-07-20T12:57:27;1.13;;;0.77;;
32445;SDS011;18899;50.748;7.102;2023-07-20T12:59:53;3.17;;;0.82;;
32445;SDS011;18899;50.748;7.102;2023-07-20T13:02:18;2.47;;;1.10;;
32445;SDS011;18899;50.748;7.102;2023-07-20T13:04:44;3.30;;;1.20;;
32445;SDS011;18899;50.748;7.102;2023-07-20T13:07:10;1.15;;;0.90;;
32445;SDS011;18899;50.748;7.102;2023-07-20T13:09:36;3.50;;;1.10;;
32445;SDS011;18899;50.748;7.102;2023-07-20T13:12:02;1.52;;;0.70;;
32445;SDS011;18899;50.748;7.102;2023-07-20T13:14:28;3.83;;;0.75;;
32445;SDS011;18899;50.748;7.102;2023-07-20T13:16:55;4.82;;;0.80;;
32445;SDS011;18899;50.748;7.102;2023-07-20T13:19:20;1.23;;;0.60;;
32445;SDS011;18899;50.748;7.102;2023-07-20T13:21:46;1.65;;;0.80;;
32445;SDS011;18899;50.748;7.102;2023-07-20T13:24:12;2.00;;;0.90;;
32445;SDS011;18899;50.748;7.102;2023-07-20T13:26:37;1.30;;;0.75;;
32445;SDS011;18899;50.748;7.102;2023-07-20T13:29:03;3.25;;;0.82;;
32445;SDS011;18899;50.748;7.102;2023-07-20T13:31:28;1.85;;;0.90;;
32445;SDS011;18899;50.748;7.102;2023-07-20T13:33:54;5.13;;;0.68;;
32445;SDS011;18899;50.748;7.102;2023-07-20T13:36:21;4.72;;;1.20;;
32445;SDS011;18899;50.748;7.102;2023-07-20T13:38:47;2.50;;;0.90;;
32445;SDS011;18899;50.748;7.102;2023-07-20T13:41:13;2.67;;;0.75;;
32445;SDS011;18899;50.748;7.102;2023-07-20T13:43:40;1.85;;;1.25;;
32445;SDS011;18899;50.748;7.102;2023-07-20T13:46:05;2.17;;;1.00;;
32445;SDS011;18899;50.748;7.102;2023-07-20T13:48:31;2.42;;;0.90;;
32445;SDS011;18899;50.748;7.102;2023-07-20T13:50:57;13.57;;;0.80;;
32445;SDS011;18899;50.748;7.102;2023-07-20T13:53:22;4.82;;;0.85;;
32445;SDS011;18899;50.748;7.102;2023-07-20T13:55:48;3.20;;;0.98;;
32445;SDS011;18899;50.748;7.102;2023-07-20T13:58:13;1.13;;;0.70;;
32445;SDS011;18899;50.748;7.102;2023-07-20T14:00:39;2.47;;;0.75;;
32445;SDS011;18899;50.748;7.102;2023-07-20T14:03:05;2.33;;;0.98;;
32445;SDS011;18899;50.748;7.102;2023-07-20T14:05:30;2.60;;;0.70;;
32445;SDS011;18899;50.748;7.102;2023-07-20T14:07:56;3.28;;;0.90;;
32445;SDS011;18899;50.748;7.102;2023-07-20T14:10:21;4.38;;;1.10;;
32445;SDS011;18899;50.748;7.102;2023-07-20T14:12:47;2.13;;;1.13;;
32445;SDS011;18899;50.748;7.102;2023-07-20T14:15:13;1.00;;;0.63;;
32445;SDS011;18899;50.748;7.102;2023-07-20T14:17:38;2.75;;;0.75;;
32445;SDS011;18899;50.748;7.102;2023-07-20T14:20:04;3.17;;;0.90;;
32445;SDS011;18899;50.748;7.102;2023-07-20T14:22:31;4.72;;;0.80;;
32445;SDS011;18899;50.748;7.102;2023-07-20T14:24:57;3.53;;;0.75;;
32445;SDS011;18899;50.748;7.102;2023-07-20T14:27:23;3.42;;;0.80;;
32445;SDS011;18899;50.748;7.102;2023-07-20T14:29:49;0.82;;;0.55;;
32445;SDS011;18899;50.748;7.102;2023-07-20T14:32:15;1.95;;;0.70;;
32445;SDS011;18899;50.748;7.102;2023-07-20T14:34:40;4.80;;;1.00;;
32445;SDS011;18899;50.748;7.102;2023-07-20T14:37:06;2.38;;;0.70;;
32445;SDS011;18899;50.748;7.102;2023-07-20T14:39:31;1.63;;;0.80;;
32445;SDS011;18899;50.748;7.102;2023-07-20T14:41:57;2.15;;;1.00;;
32445;SDS011;18899;50.748;7.102;2023-07-20T14:44:23;4.35;;;0.90;;
32445;SDS011;18899;50.748;7.102;2023-07-20T14:46:49;1.52;;;0.82;;
32445;SDS011;18899;50.748;7.102;2023-07-20T14:49:15;3.78;;;0.80;;
32445;SDS011;18899;50.748;7.102;2023-07-20T14:51:41;5.93;;;0.90;;
32445;SDS011;18899;50.748;7.102;2023-07-20T14:54:11;2.88;;;0.80;;
32445;SDS011;18899;50.748;7.102;2023-07-20T14:56:37;3.40;;;0.82;;
32445;SDS011;18899;50.748;7.102;2023-07-20T14:59:03;2.63;;;0.90;;